createdAt,value
2022-10-17T00:01:08.739Z,1.65
2022-10-17T00:03:38.504Z,1.60
2022-10-17T00:06:13.390Z,2.40
2022-10-17T00:08:45.207Z,1.75
2022-10-17T00:11:19.729Z,2.08
2022-10-17T00:13:50.289Z,1.92
2022-10-17T00:16:29.714Z,2.22
2022-10-17T00:18:57.927Z,2.08
2022-10-17T00:21:26.542Z,1.88
2022-10-17T00:23:55.734Z,2.28
2022-10-17T00:26:24.171Z,2.22
2022-10-17T00:28:54.001Z,2.28
2022-10-17T00:31:23.992Z,2.60
2022-10-17T00:33:52.749Z,3.35
2022-10-17T00:36:26.704Z,3.10
2022-10-17T00:38:57.086Z,3.33
2022-10-17T00:41:29.024Z,3.97
2022-10-17T00:44:03.336Z,5.35
2022-10-17T00:46:34.971Z,4.32
2022-10-17T00:49:10.566Z,4.95
2022-10-17T00:51:45.894Z,4.55
2022-10-17T00:54:16.444Z,4.90
2022-10-17T00:56:47.049Z,5.07
2022-10-17T00:59:17.513Z,5.47
2022-10-17T01:01:57.293Z,5.20
2022-10-17T01:04:28.004Z,4.80
2022-10-17T01:06:56.218Z,4.47
2022-10-17T01:09:25.704Z,4.20
2022-10-17T01:12:26.166Z,3.90
2022-10-17T01:15:13.285Z,3.72
2022-10-17T01:18:13.815Z,3.90
2022-10-17T01:20:59.787Z,3.55
2022-10-17T01:23:58.910Z,3.55
2022-10-17T01:26:48.663Z,3.30
2022-10-17T01:29:20.584Z,3.53
2022-10-17T01:31:55.648Z,2.97
2022-10-17T01:34:35.246Z,3.38
2022-10-17T01:37:21.015Z,3.83
2022-10-17T01:40:00.934Z,4.55
2022-10-17T01:42:36.293Z,4.18
2022-10-17T01:45:23.388Z,4.88
2022-10-17T01:47:54.062Z,5.38
2022-10-17T01:50:33.705Z,5.68
2022-10-17T01:53:28.115Z,6.10
2022-10-17T01:56:02.774Z,5.72
2022-10-17T01:58:48.470Z,6.20
2022-10-17T02:01:20.427Z,6.93
2022-10-17T02:03:51.627Z,6.03
2022-10-17T02:06:19.931Z,7.57
2022-10-17T02:08:50.623Z,6.50
2022-10-17T02:11:25.149Z,6.93
2022-10-17T02:14:22.022Z,7.43
2022-10-17T02:17:07.054Z,7.32
2022-10-17T02:19:53.681Z,6.80
2022-10-17T02:22:30.954Z,6.55
2022-10-17T02:25:13.933Z,5.63
2022-10-17T02:28:19.925Z,6.03
2022-10-17T02:30:48.138Z,6.03
2022-10-17T02:33:35.987Z,6.22
2022-10-17T02:36:12.275Z,6.60
2022-10-17T02:38:42.842Z,5.28
2022-10-17T02:41:17.273Z,5.57
2022-10-17T02:43:47.643Z,6.22
2022-10-17T02:46:17.405Z,6.35
2022-10-17T02:48:56.114Z,5.65
2022-10-17T02:51:45.729Z,5.80
2022-10-17T02:54:29.095Z,5.10
2022-10-17T02:57:07.507Z,5.45
2022-10-17T02:59:38.364Z,6.22
2022-10-17T03:02:07.765Z,5.40
2022-10-17T03:04:35.980Z,6.13
2022-10-17T03:07:04.146Z,5.57
2022-10-17T03:09:32.432Z,5.45
2022-10-17T03:12:00.608Z,5.78
2022-10-17T03:14:29.048Z,5.70
2022-10-17T03:16:57.126Z,5.20
2022-10-17T03:19:26.582Z,5.38
2022-10-17T03:21:55.338Z,5.35
2022-10-17T03:24:23.486Z,5.47
2022-10-17T03:26:51.822Z,5.40
2022-10-17T03:29:20.223Z,5.22
2022-10-17T03:31:49.092Z,5.15
2022-10-17T03:34:18.042Z,5.03
2022-10-17T03:36:47.026Z,5.03
2022-10-17T03:39:15.379Z,5.45
2022-10-17T03:41:43.704Z,4.97
2022-10-17T03:44:12.821Z,5.28
2022-10-17T03:46:41.304Z,4.85
2022-10-17T03:49:10.678Z,5.38
2022-10-17T03:51:38.976Z,5.82
2022-10-17T03:54:13.151Z,4.97
2022-10-17T03:56:41.410Z,5.88
2022-10-17T03:59:17.335Z,4.78
2022-10-17T04:01:53.862Z,5.18
2022-10-17T04:04:23.100Z,6.13
2022-10-17T04:06:51.427Z,5.53
2022-10-17T04:09:19.999Z,5.88
2022-10-17T04:11:59.577Z,4.75
2022-10-17T04:14:27.933Z,5.90
2022-10-17T04:16:56.074Z,5.38
2022-10-17T04:19:24.286Z,6.05
2022-10-17T04:21:55.047Z,5.53
2022-10-17T04:24:23.648Z,6.05
2022-10-17T04:27:11.796Z,5.55
2022-10-17T04:29:44.325Z,6.07
2022-10-17T04:32:18.348Z,6.43
2022-10-17T04:34:51.055Z,6.68
2022-10-17T04:37:22.186Z,6.68
2022-10-17T04:39:52.518Z,6.35
2022-10-17T04:42:21.336Z,6.30
2022-10-17T04:44:52.019Z,6.53
2022-10-17T04:47:20.229Z,6.38
2022-10-17T04:49:48.574Z,6.20
2022-10-17T04:52:17.488Z,5.65
2022-10-17T04:54:50.672Z,6.57
2022-10-17T04:57:20.115Z,6.63
2022-10-17T04:59:58.436Z,6.10
2022-10-17T05:02:45.187Z,6.22
2022-10-17T05:05:13.556Z,5.70
2022-10-17T05:07:42.132Z,5.93
2022-10-17T05:10:36.502Z,6.18
2022-10-17T05:13:06.313Z,5.85
2022-10-17T05:15:35.494Z,6.68
2022-10-17T05:18:05.525Z,5.97
2022-10-17T05:20:34.707Z,6.20
2022-10-17T05:23:03.323Z,6.63
2022-10-17T05:25:36.664Z,6.47
2022-10-17T05:28:04.822Z,6.68
2022-10-17T05:30:35.269Z,6.57
2022-10-17T05:33:08.627Z,7.03
2022-10-17T05:35:37.168Z,7.05
2022-10-17T05:38:06.608Z,7.00
2022-10-17T05:40:36.353Z,7.65
2022-10-17T05:43:04.496Z,7.18
2022-10-17T05:45:32.933Z,7.80
2022-10-17T05:48:02.272Z,8.40
2022-10-17T05:50:31.109Z,8.38
2022-10-17T05:53:06.601Z,9.13
2022-10-17T05:55:40.275Z,9.15
2022-10-17T05:58:11.705Z,10.73
2022-10-17T06:00:49.583Z,10.30
2022-10-17T06:03:18.219Z,10.68
2022-10-17T06:05:47.353Z,11.60
2022-10-17T06:08:15.545Z,11.75
2022-10-17T06:10:44.839Z,12.70
2022-10-17T06:13:12.874Z,12.73
2022-10-17T06:15:41.585Z,12.82
2022-10-17T06:18:12.609Z,13.38
2022-10-17T06:20:45.201Z,13.88
2022-10-17T06:23:17.263Z,19.65
2022-10-17T06:26:08.313Z,21.63
2022-10-17T06:28:37.284Z,19.63
2022-10-17T06:31:13.905Z,16.92
2022-10-17T06:33:44.617Z,17.40
2022-10-17T06:36:15.303Z,16.00
2022-10-17T06:38:45.301Z,16.50
2022-10-17T06:41:24.803Z,17.30
2022-10-17T06:43:55.232Z,18.05
2022-10-17T06:46:45.876Z,16.02
2022-10-17T06:49:17.188Z,15.68
2022-10-17T06:52:03.459Z,17.42
2022-10-17T06:54:44.194Z,16.52
2022-10-17T06:57:32.723Z,15.75
2022-10-17T07:00:22.530Z,15.38
2022-10-17T07:02:54.464Z,15.23
2022-10-17T07:05:22.616Z,18.30
2022-10-17T07:07:51.812Z,15.77
2022-10-17T07:10:20.388Z,17.83
2022-10-17T07:12:48.885Z,16.45
2022-10-17T07:15:17.087Z,17.55
2022-10-17T07:17:49.746Z,18.42
2022-10-17T07:20:20.188Z,18.95
2022-10-17T07:22:48.564Z,19.15
2022-10-17T07:25:16.644Z,15.82
2022-10-17T07:27:51.110Z,12.98
2022-10-17T07:30:20.475Z,13.32
2022-10-17T07:32:55.594Z,12.02
2022-10-17T07:35:23.850Z,12.57
2022-10-17T07:37:52.646Z,12.00
2022-10-17T07:40:22.280Z,12.15
2022-10-17T07:42:50.473Z,11.30
2022-10-17T07:45:20.096Z,12.88
2022-10-17T07:47:48.345Z,13.20
2022-10-17T07:50:18.103Z,13.75
2022-10-17T07:52:47.118Z,13.35
2022-10-17T07:55:15.423Z,13.30
2022-10-17T07:57:43.633Z,14.30
2022-10-17T08:00:12.163Z,14.18
2022-10-17T08:02:42.998Z,13.82
2022-10-17T08:05:11.325Z,13.18
2022-10-17T08:07:39.581Z,13.07
2022-10-17T08:12:37.385Z,11.57
2022-10-17T08:15:06.703Z,10.25
2022-10-17T08:17:39.295Z,10.40
2022-10-17T08:20:08.022Z,10.45
2022-10-17T08:22:36.627Z,10.65
2022-10-17T08:25:05.453Z,10.63
2022-10-17T08:27:36.782Z,10.50
2022-10-17T08:30:05.283Z,10.10
2022-10-17T08:32:33.475Z,10.25
2022-10-17T08:35:01.664Z,10.63
2022-10-17T08:37:30.124Z,9.30
2022-10-17T08:39:58.691Z,9.15
2022-10-17T08:42:44.893Z,9.48
2022-10-17T08:45:27.375Z,8.77
2022-10-17T08:48:06.302Z,9.02
2022-10-17T08:50:37.569Z,8.90
2022-10-17T08:53:24.247Z,8.73
2022-10-17T08:55:56.512Z,8.65
2022-10-17T08:58:33.104Z,9.20
2022-10-17T09:01:21.837Z,9.63
2022-10-17T09:04:17.214Z,8.18
2022-10-17T09:07:03.091Z,7.40
2022-10-17T09:09:43.613Z,7.88
2022-10-17T09:12:17.939Z,8.48
2022-10-17T09:15:03.758Z,8.07
2022-10-17T09:17:52.004Z,8.15
2022-10-17T09:20:34.012Z,7.90
2022-10-17T09:23:09.862Z,7.15
2022-10-17T09:25:47.812Z,7.68
2022-10-17T09:28:37.391Z,9.10
2022-10-17T09:31:25.633Z,8.90
2022-10-17T09:33:57.761Z,8.07
2022-10-17T09:36:38.107Z,8.35
2022-10-17T09:39:22.034Z,8.50
2022-10-17T09:41:56.790Z,7.78
2022-10-17T09:44:45.623Z,8.02
2022-10-17T09:47:25.703Z,8.25
2022-10-17T09:49:54.570Z,7.22
2022-10-17T09:52:30.545Z,7.15
2022-10-17T09:55:18.167Z,7.20
2022-10-17T09:58:01.166Z,6.70
2022-10-17T10:00:33.226Z,6.43
2022-10-17T10:03:20.168Z,6.75
2022-10-17T10:06:21.279Z,8.05
2022-10-17T10:08:55.597Z,7.55
2022-10-17T10:11:45.755Z,7.45
2022-10-17T10:14:20.924Z,7.18
2022-10-17T10:16:51.017Z,7.63
2022-10-17T10:19:37.437Z,6.78
2022-10-17T10:22:19.820Z,6.88
2022-10-17T10:25:17.097Z,6.57
2022-10-17T10:27:47.574Z,5.97
2022-10-17T10:30:29.254Z,6.75
2022-10-17T10:32:59.876Z,6.57
2022-10-17T10:35:36.490Z,6.78
2022-10-17T10:38:15.669Z,6.22
2022-10-17T10:40:50.278Z,5.95
2022-10-17T10:43:39.176Z,6.05
2022-10-17T10:46:21.350Z,5.80
2022-10-17T10:51:29.518Z,6.65
2022-10-17T10:54:33.486Z,7.10
2022-10-17T10:57:05.220Z,6.10
2022-10-17T10:59:58.884Z,6.05
2022-10-17T11:02:41.090Z,5.88
2022-10-17T11:08:21.083Z,6.53
2022-10-17T11:11:04.879Z,9.35
2022-10-17T11:13:46.429Z,8.23
2022-10-17T11:16:34.635Z,6.25
2022-10-17T11:19:58.519Z,7.70
2022-10-17T11:22:34.924Z,6.82
2022-10-17T11:28:39.156Z,7.00
2022-10-17T11:31:12.709Z,6.90
2022-10-17T11:33:57.473Z,7.43
2022-10-17T11:36:31.757Z,7.30
2022-10-17T11:39:11.284Z,6.60
2022-10-17T11:42:00.881Z,6.82
2022-10-17T11:44:48.238Z,9.18
2022-10-17T11:47:31.718Z,6.90
2022-10-17T11:53:26.481Z,7.40
2022-10-17T11:55:58.399Z,6.82
2022-10-17T11:58:53.567Z,6.90
2022-10-17T12:01:43.448Z,7.50
2022-10-17T12:04:49.470Z,6.50
2022-10-17T12:07:39.759Z,6.25
2022-10-17T12:10:34.509Z,6.15
2022-10-17T12:13:30.275Z,6.07
2022-10-17T12:16:17.749Z,5.75
2022-10-17T12:18:47.569Z,6.30
2022-10-17T12:21:19.082Z,6.10
2022-10-17T12:23:55.528Z,6.68
2022-10-17T12:26:29.952Z,5.43
2022-10-17T12:28:58.891Z,6.85
2022-10-17T12:31:33.542Z,6.45
2022-10-17T12:34:05.851Z,5.82
2022-10-17T12:36:34.354Z,6.28
2022-10-17T12:39:02.746Z,6.45
2022-10-17T12:41:40.079Z,6.40
2022-10-17T12:44:15.249Z,6.43
2022-10-17T12:47:20.999Z,5.40
2022-10-17T12:49:53.248Z,6.00
2022-10-17T12:52:53.782Z,6.40
2022-10-17T12:55:25.744Z,6.10
2022-10-17T12:57:57.080Z,7.13
2022-10-17T13:00:54.809Z,6.88
2022-10-17T13:03:35.444Z,7.10
2022-10-17T13:06:07.050Z,6.28
2022-10-17T13:08:43.898Z,6.32
2022-10-17T13:11:13.238Z,6.35
2022-10-17T13:13:50.190Z,6.78
2022-10-17T13:16:39.050Z,6.40
2022-10-17T13:19:19.250Z,6.28
2022-10-17T13:22:12.194Z,6.22
2022-10-17T13:24:41.867Z,6.00
2022-10-17T13:27:29.816Z,7.25
2022-10-17T13:30:00.420Z,6.82
2022-10-17T13:32:37.827Z,6.95
2022-10-17T13:35:09.324Z,5.93
2022-10-17T13:37:39.906Z,7.00
2022-10-17T13:40:40.255Z,6.35
2022-10-17T13:43:04.694Z,6.18
2022-10-17T13:45:36.024Z,7.00
2022-10-17T13:48:18.028Z,5.88
2022-10-17T13:50:50.082Z,7.15
2022-10-17T13:56:09.119Z,6.25
2022-10-17T13:58:49.794Z,6.50
2022-10-17T14:01:20.822Z,6.45
2022-10-17T14:03:54.142Z,7.28
2022-10-17T14:06:32.527Z,5.85
2022-10-17T14:09:05.814Z,6.53
2022-10-17T14:11:41.439Z,6.35
2022-10-17T14:14:22.731Z,6.30
2022-10-17T14:16:51.206Z,7.97
2022-10-17T14:19:38.491Z,7.47
2022-10-17T14:22:27.609Z,9.00
2022-10-17T14:25:01.511Z,9.10
2022-10-17T14:27:57.432Z,9.40
2022-10-17T14:33:23.719Z,7.50
2022-10-17T14:35:56.888Z,8.07
2022-10-17T14:38:25.901Z,6.00
2022-10-17T14:41:23.537Z,6.35
2022-10-17T14:44:06.872Z,5.40
2022-10-17T14:46:47.213Z,7.47
2022-10-17T14:49:25.357Z,7.85
2022-10-17T14:52:16.772Z,6.68
2022-10-17T14:54:48.619Z,7.32
2022-10-17T14:57:32.165Z,6.78
2022-10-17T15:00:00.544Z,8.88
2022-10-17T15:02:31.299Z,6.50
2022-10-17T15:05:00.043Z,8.27
2022-10-17T15:07:28.276Z,6.53
2022-10-17T15:09:56.952Z,6.47
2022-10-17T15:12:26.036Z,6.28
2022-10-17T15:14:54.468Z,6.03
2022-10-17T15:17:27.307Z,8.60
2022-10-17T15:19:56.804Z,5.93
2022-10-17T15:22:25.628Z,5.57
2022-10-17T15:24:54.009Z,9.48
2022-10-17T15:27:25.498Z,6.18
2022-10-17T15:29:53.879Z,5.55
2022-10-17T15:32:22.300Z,4.40
2022-10-17T15:34:51.406Z,5.35
2022-10-17T15:37:23.512Z,5.45
2022-10-17T15:39:54.958Z,5.38
2022-10-17T15:42:28.183Z,7.00
2022-10-17T15:44:57.426Z,6.85
2022-10-17T15:47:29.905Z,5.90
2022-10-17T15:49:58.780Z,4.40
2022-10-17T15:52:27.444Z,5.50
2022-10-17T15:54:57.417Z,6.20
2022-10-17T15:57:31.156Z,6.28
2022-10-17T16:00:00.963Z,5.22
2022-10-17T16:02:29.364Z,4.57
2022-10-17T16:04:57.930Z,4.82
2022-10-17T16:07:26.546Z,5.40
2022-10-17T16:09:54.953Z,4.38
2022-10-17T16:12:29.498Z,3.78
2022-10-17T16:14:57.825Z,4.00
2022-10-17T16:17:26.050Z,3.95
2022-10-17T16:19:54.320Z,4.07
2022-10-17T16:22:31.521Z,4.40
2022-10-17T16:24:59.915Z,4.40
2022-10-17T16:27:28.104Z,4.45
2022-10-17T16:29:56.383Z,5.70
2022-10-17T16:32:24.693Z,6.95
2022-10-17T16:34:52.837Z,4.18
2022-10-17T16:37:21.018Z,5.05
2022-10-17T16:39:49.271Z,6.78
2022-10-17T16:42:17.407Z,6.38
2022-10-17T16:44:45.982Z,5.65
2022-10-17T16:47:14.189Z,4.35
2022-10-17T16:49:45.174Z,4.45
2022-10-17T16:52:14.190Z,5.40
2022-10-17T16:54:42.344Z,6.53
2022-10-17T16:57:10.590Z,7.15
2022-10-17T16:59:39.337Z,7.72
2022-10-17T17:02:07.413Z,4.53
2022-10-17T17:04:35.589Z,4.80
2022-10-17T17:07:04.075Z,4.63
2022-10-17T17:09:32.205Z,4.95
2022-10-17T17:12:00.465Z,4.68
2022-10-17T17:14:28.696Z,4.43
2022-10-17T17:16:57.086Z,5.07
2022-10-17T17:19:25.300Z,4.68
2022-10-17T17:21:53.505Z,4.55
2022-10-17T17:24:22.224Z,4.68
2022-10-17T17:26:55.819Z,5.22
2022-10-17T17:29:25.431Z,5.13
2022-10-17T17:31:53.940Z,4.53
2022-10-17T17:34:22.110Z,4.82
2022-10-17T17:36:50.264Z,5.18
2022-10-17T17:39:18.310Z,7.28
2022-10-17T17:41:47.051Z,6.10
2022-10-17T17:44:16.917Z,7.03
2022-10-17T17:46:45.953Z,8.50
2022-10-17T17:49:14.480Z,5.45
2022-10-17T17:51:42.701Z,6.35
2022-10-17T17:54:10.891Z,5.88
2022-10-17T17:56:39.505Z,5.95
2022-10-17T17:59:07.745Z,4.80
2022-10-17T18:01:36.568Z,5.80
2022-10-17T18:04:06.308Z,6.63
2022-10-17T18:06:34.766Z,6.38
2022-10-17T18:09:03.552Z,6.25
2022-10-17T18:11:32.039Z,7.65
2022-10-17T18:14:04.188Z,7.45
2022-10-17T18:16:34.210Z,8.60
2022-10-17T18:19:06.829Z,12.82
2022-10-17T18:21:36.531Z,11.90
2022-10-17T18:24:05.169Z,12.40
2022-10-17T18:26:33.943Z,9.13
2022-10-17T18:29:02.183Z,10.93
2022-10-17T18:31:30.516Z,11.95
2022-10-17T18:33:59.748Z,11.88
2022-10-17T18:36:29.416Z,15.55
2022-10-17T18:38:57.722Z,10.82
2022-10-17T18:41:26.989Z,8.48
2022-10-17T18:43:56.291Z,8.50
2022-10-17T18:46:27.916Z,9.68
2022-10-17T18:48:56.674Z,9.15
2022-10-17T18:51:26.296Z,10.43
2022-10-17T18:53:57.501Z,9.75
2022-10-17T18:56:26.665Z,8.00
2022-10-17T18:58:55.477Z,8.68
2022-10-17T19:01:26.567Z,8.40
2022-10-17T19:03:58.155Z,9.80
2022-10-17T19:06:31.271Z,8.48
2022-10-17T19:09:01.011Z,9.32
2022-10-17T19:11:31.117Z,9.25
2022-10-17T19:14:01.720Z,9.50
2022-10-17T19:16:34.686Z,8.30
2022-10-17T19:19:07.180Z,8.80
2022-10-17T19:21:35.708Z,10.63
2022-10-17T19:24:06.826Z,10.35
2022-10-17T19:26:36.938Z,10.87
2022-10-17T19:29:06.557Z,9.20
2022-10-17T19:31:36.156Z,8.65
2022-10-17T19:34:05.101Z,14.55
2022-10-17T19:36:35.170Z,15.85
2022-10-17T19:39:05.789Z,13.18
2022-10-17T19:41:35.116Z,12.57
2022-10-17T19:44:03.964Z,26.23
2022-10-17T19:46:33.578Z,28.55
2022-10-17T19:49:02.505Z,11.75
2022-10-17T19:51:31.300Z,8.80
2022-10-17T19:54:01.440Z,8.65
2022-10-17T19:56:33.600Z,11.23
2022-10-17T20:01:32.805Z,21.15
2022-10-17T20:04:01.158Z,16.23
2022-10-17T20:06:29.770Z,13.05
2022-10-17T20:08:57.975Z,15.80
2022-10-17T20:11:28.229Z,13.05
2022-10-17T20:13:57.567Z,8.70
2022-10-17T20:16:37.997Z,9.90
2022-10-17T20:19:09.586Z,10.32
2022-10-17T20:21:39.125Z,8.70
2022-10-17T20:24:09.636Z,10.50
2022-10-17T20:26:39.418Z,13.65
2022-10-17T20:29:14.903Z,12.02
2022-10-17T20:31:45.366Z,8.88
2022-10-17T20:34:16.044Z,7.63
2022-10-17T20:36:44.912Z,7.88
2022-10-17T20:39:14.794Z,8.10
2022-10-17T20:41:43.802Z,8.68
2022-10-17T20:44:13.275Z,8.35
2022-10-17T20:46:48.627Z,8.05
2022-10-17T20:49:26.119Z,8.88
2022-10-17T20:51:54.376Z,8.23
2022-10-17T20:54:22.754Z,7.93
2022-10-17T20:56:51.457Z,10.70
2022-10-17T20:59:19.870Z,14.38
2022-10-17T21:01:48.892Z,14.23
2022-10-17T21:07:05.824Z,9.05
2022-10-17T21:09:34.544Z,9.48
2022-10-17T21:12:02.737Z,9.95
2022-10-17T21:14:31.007Z,9.57
2022-10-17T21:17:04.512Z,8.93
2022-10-17T21:19:33.430Z,9.10
2022-10-17T21:22:01.719Z,8.57
2022-10-17T21:24:30.047Z,8.25
2022-10-17T21:26:58.184Z,10.43
2022-10-17T21:29:26.672Z,9.63
2022-10-17T21:31:54.901Z,10.48
2022-10-17T21:34:24.482Z,10.35
2022-10-17T21:36:52.924Z,9.68
2022-10-17T21:39:21.323Z,12.35
2022-10-17T21:41:49.443Z,10.90
2022-10-17T21:44:23.359Z,11.07
2022-10-17T21:46:51.990Z,10.73
2022-10-17T21:49:23.305Z,10.77
2022-10-17T21:51:52.700Z,10.70
2022-10-17T21:54:21.937Z,13.98
2022-10-17T21:56:50.726Z,14.80
2022-10-17T21:59:18.878Z,14.35
2022-10-17T22:01:47.484Z,13.35
2022-10-17T22:04:19.077Z,14.27
2022-10-17T22:06:49.499Z,13.30
2022-10-17T22:09:23.674Z,12.23
2022-10-17T22:11:55.807Z,11.35
2022-10-17T22:14:27.523Z,11.30
2022-10-17T22:16:56.085Z,11.25
2022-10-17T22:19:26.596Z,10.48
2022-10-17T22:21:55.630Z,11.48
2022-10-17T22:24:24.196Z,12.80
2022-10-17T22:26:52.957Z,12.50
2022-10-17T22:29:21.789Z,11.77
2022-10-17T22:31:49.966Z,11.45
2022-10-17T22:34:19.049Z,13.45
2022-10-17T22:36:47.570Z,13.07
2022-10-17T22:39:16.015Z,15.27
2022-10-17T22:41:44.291Z,13.93
2022-10-17T22:44:12.423Z,14.32
2022-10-17T22:46:40.522Z,13.77
2022-10-17T22:49:08.674Z,13.40
2022-10-17T22:51:36.794Z,14.98
2022-10-17T22:54:04.945Z,13.40
2022-10-17T22:56:33.241Z,14.68
2022-10-17T22:59:01.428Z,12.75
2022-10-17T23:01:29.754Z,13.32
2022-10-17T23:03:58.017Z,13.63
2022-10-17T23:06:26.209Z,15.43
2022-10-17T23:08:54.326Z,17.00
2022-10-17T23:11:22.752Z,18.33
2022-10-17T23:13:51.045Z,17.55
2022-10-17T23:16:19.270Z,17.40
2022-10-17T23:18:47.327Z,16.35
2022-10-17T23:21:15.681Z,16.75
2022-10-17T23:23:43.792Z,17.33
2022-10-17T23:26:14.472Z,16.23
2022-10-17T23:28:43.648Z,20.08
2022-10-17T23:34:37.528Z,19.42
2022-10-17T23:37:05.789Z,20.40
2022-10-17T23:39:34.019Z,22.15
2022-10-17T23:42:02.195Z,21.38
2022-10-17T23:44:30.354Z,22.63
2022-10-17T23:46:58.577Z,27.45
2022-10-17T23:49:26.894Z,26.15
2022-10-17T23:51:55.323Z,26.08
2022-10-17T23:54:23.440Z,26.73
2022-10-17T23:56:51.734Z,26.23
2022-10-17T23:59:19.908Z,25.42
